sensor_id;sensor_type;location;lat;lon;timestamp;P1;durP1;ratioP1;P2;durP2;ratioP2
6987;SDS011;3534;49.960;8.018;2023-09-08T00:00:55;12.93;;;5.60;;
6987;SDS011;3534;49.960;8.018;2023-09-08T00:03:22;5.33;;;4.83;;
6987;SDS011;3534;49.960;8.018;2023-09-08T00:05:48;8.17;;;5.43;;
6987;SDS011;3534;49.960;8.018;2023-09-08T00:08:15;8.30;;;6.50;;
6987;SDS011;3534;49.960;8.018;2023-09-08T00:10:42;7.27;;;5.70;;
6987;SDS011;3534;49.960;8.018;2023-09-08T00:13:10;7.30;;;4.73;;
6987;SDS011;3534;49.960;8.018;2023-09-08T00:15:36;6.73;;;5.00;;
6987;SDS011;3534;49.960;8.018;2023-09-08T00:18:03;10.03;;;5.40;;
6987;SDS011;3534;49.960;8.018;2023-09-08T00:20:30;6.10;;;5.27;;
6987;SDS011;3534;49.960;8.018;2023-09-08T00:22:57;5.63;;;4.87;;
6987;SDS011;3534;49.960;8.018;2023-09-08T00:25:24;6.00;;;4.70;;
6987;SDS011;3534;49.960;8.018;2023-09-08T00:27:50;9.30;;;5.03;;
6987;SDS011;3534;49.960;8.018;2023-09-08T00:30:18;8.80;;;5.77;;
6987;SDS011;3534;49.960;8.018;2023-09-08T00:32:45;9.87;;;5.50;;
6987;SDS011;3534;49.960;8.018;2023-09-08T00:35:12;11.13;;;5.10;;
6987;SDS011;3534;49.960;8.018;2023-09-08T00:37:39;10.93;;;5.00;;
6987;SDS011;3534;49.960;8.018;2023-09-08T00:40:06;12.93;;;5.80;;
6987;SDS011;3534;49.960;8.018;2023-09-08T00:42:34;6.67;;;5.57;;
6987;SDS011;3534;49.960;8.018;2023-09-08T00:45:01;6.60;;;5.67;;
6987;SDS011;3534;49.960;8.018;2023-09-08T00:47:29;9.53;;;6.23;;
6987;SDS011;3534;49.960;8.018;2023-09-08T00:49:55;11.13;;;6.57;;
6987;SDS011;3534;49.960;8.018;2023-09-08T00:52:22;7.53;;;5.27;;
6987;SDS011;3534;49.960;8.018;2023-09-08T00:54:56;7.13;;;6.03;;
6987;SDS011;3534;49.960;8.018;2023-09-08T00:57:22;7.10;;;5.70;;
6987;SDS011;3534;49.960;8.018;2023-09-08T00:59:49;7.43;;;5.70;;
6987;SDS011;3534;49.960;8.018;2023-09-08T01:02:16;7.10;;;5.60;;
6987;SDS011;3534;49.960;8.018;2023-09-08T01:04:44;6.80;;;5.23;;
6987;SDS011;3534;49.960;8.018;2023-09-08T01:07:11;9.87;;;6.43;;
6987;SDS011;3534;49.960;8.018;2023-09-08T01:09:38;9.80;;;6.40;;
6987;SDS011;3534;49.960;8.018;2023-09-08T01:12:05;6.30;;;5.70;;
6987;SDS011;3534;49.960;8.018;2023-09-08T01:14:32;8.67;;;6.93;;
6987;SDS011;3534;49.960;8.018;2023-09-08T01:16:59;8.93;;;6.10;;
6987;SDS011;3534;49.960;8.018;2023-09-08T01:19:26;6.47;;;5.40;;
6987;SDS011;3534;49.960;8.018;2023-09-08T01:22:00;9.00;;;6.30;;
6987;SDS011;3534;49.960;8.018;2023-09-08T01:27:48;8.60;;;5.77;;
6987;SDS011;3534;49.960;8.018;2023-09-08T01:30:16;10.53;;;5.70;;
6987;SDS011;3534;49.960;8.018;2023-09-08T01:32:44;8.27;;;5.83;;
6987;SDS011;3534;49.960;8.018;2023-09-08T01:35:12;6.63;;;5.10;;
6987;SDS011;3534;49.960;8.018;2023-09-08T01:37:39;6.00;;;5.27;;
6987;SDS011;3534;49.960;8.018;2023-09-08T01:40:07;7.83;;;5.43;;
6987;SDS011;3534;49.960;8.018;2023-09-08T01:42:36;6.60;;;5.13;;
6987;SDS011;3534;49.960;8.018;2023-09-08T01:45:03;9.17;;;5.57;;
6987;SDS011;3534;49.960;8.018;2023-09-08T01:47:31;6.53;;;5.53;;
6987;SDS011;3534;49.960;8.018;2023-09-08T01:49:58;12.63;;;6.27;;
6987;SDS011;3534;49.960;8.018;2023-09-08T01:52:25;6.60;;;5.40;;
6987;SDS011;3534;49.960;8.018;2023-09-08T01:54:52;8.27;;;5.20;;
6987;SDS011;3534;49.960;8.018;2023-09-08T01:57:18;13.07;;;6.03;;
6987;SDS011;3534;49.960;8.018;2023-09-08T01:59:46;6.43;;;5.77;;
6987;SDS011;3534;49.960;8.018;2023-09-08T02:02:14;8.83;;;5.83;;
6987;SDS011;3534;49.960;8.018;2023-09-08T02:04:40;8.03;;;6.10;;
6987;SDS011;3534;49.960;8.018;2023-09-08T02:07:07;7.10;;;6.07;;
6987;SDS011;3534;49.960;8.018;2023-09-08T02:09:34;7.47;;;6.03;;
6987;SDS011;3534;49.960;8.018;2023-09-08T02:12:04;8.60;;;5.37;;
6987;SDS011;3534;49.960;8.018;2023-09-08T02:14:31;7.73;;;5.80;;
6987;SDS011;3534;49.960;8.018;2023-09-08T02:16:59;7.27;;;5.53;;
6987;SDS011;3534;49.960;8.018;2023-09-08T02:19:27;11.10;;;6.10;;
6987;SDS011;3534;49.960;8.018;2023-09-08T02:21:53;10.60;;;5.90;;
6987;SDS011;3534;49.960;8.018;2023-09-08T02:24:20;7.90;;;5.57;;
6987;SDS011;3534;49.960;8.018;2023-09-08T02:26:47;7.93;;;6.13;;
6987;SDS011;3534;49.960;8.018;2023-09-08T02:29:13;9.13;;;6.10;;
6987;SDS011;3534;49.960;8.018;2023-09-08T02:31:40;9.00;;;6.10;;
6987;SDS011;3534;49.960;8.018;2023-09-08T02:34:08;8.27;;;6.70;;
6987;SDS011;3534;49.960;8.018;2023-09-08T02:36:36;11.23;;;6.50;;
6987;SDS011;3534;49.960;8.018;2023-09-08T02:39:03;8.63;;;5.97;;
6987;SDS011;3534;49.960;8.018;2023-09-08T02:41:31;6.97;;;4.67;;
6987;SDS011;3534;49.960;8.018;2023-09-08T02:43:58;9.23;;;6.00;;
6987;SDS011;3534;49.960;8.018;2023-09-08T02:46:25;7.77;;;5.60;;
6987;SDS011;3534;49.960;8.018;2023-09-08T02:48:52;6.60;;;5.60;;
6987;SDS011;3534;49.960;8.018;2023-09-08T02:51:20;7.40;;;5.80;;
6987;SDS011;3534;49.960;8.018;2023-09-08T02:53:47;11.77;;;6.00;;
6987;SDS011;3534;49.960;8.018;2023-09-08T02:56:13;7.37;;;5.63;;
6987;SDS011;3534;49.960;8.018;2023-09-08T02:58:40;9.37;;;6.23;;
6987;SDS011;3534;49.960;8.018;2023-09-08T03:01:11;10.60;;;5.67;;
6987;SDS011;3534;49.960;8.018;2023-09-08T03:03:39;8.70;;;5.77;;
6987;SDS011;3534;49.960;8.018;2023-09-08T03:06:06;6.30;;;5.20;;
6987;SDS011;3534;49.960;8.018;2023-09-08T03:08:34;12.90;;;6.20;;
6987;SDS011;3534;49.960;8.018;2023-09-08T03:11:02;13.37;;;5.90;;
6987;SDS011;3534;49.960;8.018;2023-09-08T03:13:29;9.10;;;6.20;;
6987;SDS011;3534;49.960;8.018;2023-09-08T03:15:56;11.90;;;6.73;;
6987;SDS011;3534;49.960;8.018;2023-09-08T03:18:27;9.37;;;6.20;;
6987;SDS011;3534;49.960;8.018;2023-09-08T03:20:54;8.93;;;4.90;;
6987;SDS011;3534;49.960;8.018;2023-09-08T03:23:20;5.97;;;5.30;;
6987;SDS011;3534;49.960;8.018;2023-09-08T03:25:49;9.13;;;6.27;;
6987;SDS011;3534;49.960;8.018;2023-09-08T03:28:16;11.63;;;6.23;;
6987;SDS011;3534;49.960;8.018;2023-09-08T03:30:43;10.03;;;6.10;;
6987;SDS011;3534;49.960;8.018;2023-09-08T03:33:09;8.00;;;5.93;;
6987;SDS011;3534;49.960;8.018;2023-09-08T03:35:36;7.63;;;6.00;;
6987;SDS011;3534;49.960;8.018;2023-09-08T03:38:03;7.87;;;6.17;;
6987;SDS011;3534;49.960;8.018;2023-09-08T03:40:29;9.40;;;6.00;;
6987;SDS011;3534;49.960;8.018;2023-09-08T03:42:57;10.33;;;5.83;;
6987;SDS011;3534;49.960;8.018;2023-09-08T03:45:24;8.60;;;5.63;;
6987;SDS011;3534;49.960;8.018;2023-09-08T03:47:51;9.80;;;5.77;;
6987;SDS011;3534;49.960;8.018;2023-09-08T03:50:17;6.73;;;5.00;;
6987;SDS011;3534;49.960;8.018;2023-09-08T03:52:44;8.20;;;5.50;;
6987;SDS011;3534;49.960;8.018;2023-09-08T03:55:11;8.37;;;5.93;;
6987;SDS011;3534;49.960;8.018;2023-09-08T03:57:37;7.33;;;5.53;;
6987;SDS011;3534;49.960;8.018;2023-09-08T04:00:06;7.80;;;5.83;;
6987;SDS011;3534;49.960;8.018;2023-09-08T04:02:35;14.33;;;6.03;;
6987;SDS011;3534;49.960;8.018;2023-09-08T04:05:02;8.43;;;5.93;;
6987;SDS011;3534;49.960;8.018;2023-09-08T04:07:29;10.20;;;5.73;;
6987;SDS011;3534;49.960;8.018;2023-09-08T04:09:55;9.53;;;6.23;;
6987;SDS011;3534;49.960;8.018;2023-09-08T04:12:22;8.87;;;6.10;;
6987;SDS011;3534;49.960;8.018;2023-09-08T04:14:49;7.17;;;5.83;;
6987;SDS011;3534;49.960;8.018;2023-09-08T04:17:17;11.03;;;5.63;;
6987;SDS011;3534;49.960;8.018;2023-09-08T04:19:44;12.83;;;6.40;;
6987;SDS011;3534;49.960;8.018;2023-09-08T04:22:11;9.23;;;6.43;;
6987;SDS011;3534;49.960;8.018;2023-09-08T04:24:37;8.30;;;5.87;;
6987;SDS011;3534;49.960;8.018;2023-09-08T04:27:04;7.47;;;6.33;;
6987;SDS011;3534;49.960;8.018;2023-09-08T04:29:31;8.00;;;5.80;;
6987;SDS011;3534;49.960;8.018;2023-09-08T04:31:58;6.70;;;5.43;;
6987;SDS011;3534;49.960;8.018;2023-09-08T04:34:27;8.70;;;6.67;;
6987;SDS011;3534;49.960;8.018;2023-09-08T04:36:53;14.17;;;6.80;;
6987;SDS011;3534;49.960;8.018;2023-09-08T04:39:20;7.77;;;5.57;;
6987;SDS011;3534;49.960;8.018;2023-09-08T04:41:47;7.53;;;6.40;;
6987;SDS011;3534;49.960;8.018;2023-09-08T04:44:13;6.47;;;5.80;;
6987;SDS011;3534;49.960;8.018;2023-09-08T04:46:40;9.93;;;5.90;;
6987;SDS011;3534;49.960;8.018;2023-09-08T04:49:06;7.53;;;6.40;;
6987;SDS011;3534;49.960;8.018;2023-09-08T04:51:34;7.17;;;5.80;;
6987;SDS011;3534;49.960;8.018;2023-09-08T04:54:01;7.03;;;5.30;;
6987;SDS011;3534;49.960;8.018;2023-09-08T04:56:28;11.30;;;6.27;;
6987;SDS011;3534;49.960;8.018;2023-09-08T04:58:54;6.20;;;5.57;;
6987;SDS011;3534;49.960;8.018;2023-09-08T05:01:23;8.53;;;5.90;;
6987;SDS011;3534;49.960;8.018;2023-09-08T05:03:49;8.17;;;5.70;;
6987;SDS011;3534;49.960;8.018;2023-09-08T05:06:16;15.33;;;6.33;;
6987;SDS011;3534;49.960;8.018;2023-09-08T05:08:44;7.87;;;5.57;;
6987;SDS011;3534;49.960;8.018;2023-09-08T05:11:11;11.07;;;6.50;;
6987;SDS011;3534;49.960;8.018;2023-09-08T05:13:37;11.63;;;5.40;;
6987;SDS011;3534;49.960;8.018;2023-09-08T05:16:04;7.50;;;5.80;;
6987;SDS011;3534;49.960;8.018;2023-09-08T05:18:38;12.43;;;5.93;;
6987;SDS011;3534;49.960;8.018;2023-09-08T05:21:05;7.70;;;5.53;;
6987;SDS011;3534;49.960;8.018;2023-09-08T05:23:32;11.07;;;6.30;;
6987;SDS011;3534;49.960;8.018;2023-09-08T05:26:00;9.70;;;6.50;;
6987;SDS011;3534;49.960;8.018;2023-09-08T05:28:26;6.60;;;5.90;;
6987;SDS011;3534;49.960;8.018;2023-09-08T05:30:53;12.40;;;5.60;;
6987;SDS011;3534;49.960;8.018;2023-09-08T05:33:20;8.67;;;5.97;;
6987;SDS011;3534;49.960;8.018;2023-09-08T05:35:47;6.40;;;5.37;;
6987;SDS011;3534;49.960;8.018;2023-09-08T05:38:13;8.50;;;5.80;;
6987;SDS011;3534;49.960;8.018;2023-09-08T05:40:40;18.90;;;6.47;;
6987;SDS011;3534;49.960;8.018;2023-09-08T05:43:08;8.30;;;6.00;;
6987;SDS011;3534;49.960;8.018;2023-09-08T05:45:35;12.20;;;6.23;;
6987;SDS011;3534;49.960;8.018;2023-09-08T05:48:02;9.63;;;5.70;;
6987;SDS011;3534;49.960;8.018;2023-09-08T05:50:29;9.10;;;6.87;;
6987;SDS011;3534;49.960;8.018;2023-09-08T05:52:55;13.53;;;6.37;;
6987;SDS011;3534;49.960;8.018;2023-09-08T05:55:22;6.60;;;5.37;;
6987;SDS011;3534;49.960;8.018;2023-09-08T05:57:49;11.47;;;6.00;;
6987;SDS011;3534;49.960;8.018;2023-09-08T06:00:17;8.63;;;6.30;;
6987;SDS011;3534;49.960;8.018;2023-09-08T06:02:44;10.63;;;6.23;;
6987;SDS011;3534;49.960;8.018;2023-09-08T06:05:11;9.80;;;5.57;;
6987;SDS011;3534;49.960;8.018;2023-09-08T06:07:38;9.10;;;6.43;;
6987;SDS011;3534;49.960;8.018;2023-09-08T06:10:05;9.90;;;6.70;;
6987;SDS011;3534;49.960;8.018;2023-09-08T06:12:32;9.63;;;6.93;;
6987;SDS011;3534;49.960;8.018;2023-09-08T06:14:59;14.00;;;7.63;;
6987;SDS011;3534;49.960;8.018;2023-09-08T06:17:27;9.83;;;6.47;;
6987;SDS011;3534;49.960;8.018;2023-09-08T06:19:53;18.43;;;8.23;;
6987;SDS011;3534;49.960;8.018;2023-09-08T06:22:21;14.13;;;9.00;;
6987;SDS011;3534;49.960;8.018;2023-09-08T06:24:48;15.40;;;8.93;;
6987;SDS011;3534;49.960;8.018;2023-09-08T06:27:15;11.70;;;7.00;;
6987;SDS011;3534;49.960;8.018;2023-09-08T06:29:42;10.70;;;7.50;;
6987;SDS011;3534;49.960;8.018;2023-09-08T06:32:09;11.47;;;7.93;;
6987;SDS011;3534;49.960;8.018;2023-09-08T06:34:38;17.83;;;9.27;;
6987;SDS011;3534;49.960;8.018;2023-09-08T06:37:04;13.00;;;7.77;;
6987;SDS011;3534;49.960;8.018;2023-09-08T06:39:31;11.73;;;8.27;;
6987;SDS011;3534;49.960;8.018;2023-09-08T06:41:58;9.87;;;7.50;;
6987;SDS011;3534;49.960;8.018;2023-09-08T06:44:24;11.93;;;8.10;;
6987;SDS011;3534;49.960;8.018;2023-09-08T06:46:51;10.23;;;7.80;;
6987;SDS011;3534;49.960;8.018;2023-09-08T06:49:18;12.23;;;8.10;;
6987;SDS011;3534;49.960;8.018;2023-09-08T06:51:45;12.67;;;7.70;;
6987;SDS011;3534;49.960;8.018;2023-09-08T06:54:13;9.70;;;6.80;;
6987;SDS011;3534;49.960;8.018;2023-09-08T06:56:40;28.13;;;11.07;;
6987;SDS011;3534;49.960;8.018;2023-09-08T06:59:07;12.90;;;7.93;;
6987;SDS011;3534;49.960;8.018;2023-09-08T07:01:34;10.70;;;8.30;;
6987;SDS011;3534;49.960;8.018;2023-09-08T07:04:01;14.03;;;8.23;;
6987;SDS011;3534;49.960;8.018;2023-09-08T07:06:28;11.53;;;8.33;;
6987;SDS011;3534;49.960;8.018;2023-09-08T07:08:56;9.83;;;8.00;;
6987;SDS011;3534;49.960;8.018;2023-09-08T07:11:22;9.80;;;8.20;;
6987;SDS011;3534;49.960;8.018;2023-09-08T07:13:49;8.57;;;7.50;;
6987;SDS011;3534;49.960;8.018;2023-09-08T07:16:16;9.77;;;7.10;;
6987;SDS011;3534;49.960;8.018;2023-09-08T07:18:42;9.20;;;8.00;;
6987;SDS011;3534;49.960;8.018;2023-09-08T07:21:09;16.57;;;7.60;;
6987;SDS011;3534;49.960;8.018;2023-09-08T07:23:36;13.63;;;8.93;;
6987;SDS011;3534;49.960;8.018;2023-09-08T07:26:04;11.93;;;8.40;;
6987;SDS011;3534;49.960;8.018;2023-09-08T07:28:31;10.90;;;7.90;;
6987;SDS011;3534;49.960;8.018;2023-09-08T07:31:02;11.90;;;7.73;;
6987;SDS011;3534;49.960;8.018;2023-09-08T07:33:29;13.80;;;7.53;;
6987;SDS011;3534;49.960;8.018;2023-09-08T07:35:55;10.17;;;7.60;;
6987;SDS011;3534;49.960;8.018;2023-09-08T07:38:22;15.93;;;8.50;;
6987;SDS011;3534;49.960;8.018;2023-09-08T07:40:49;12.73;;;8.40;;
6987;SDS011;3534;49.960;8.018;2023-09-08T07:43:17;8.77;;;7.23;;
6987;SDS011;3534;49.960;8.018;2023-09-08T07:45:44;10.23;;;6.70;;
6987;SDS011;3534;49.960;8.018;2023-09-08T07:48:10;8.87;;;7.00;;
6987;SDS011;3534;49.960;8.018;2023-09-08T07:50:37;12.97;;;7.17;;
6987;SDS011;3534;49.960;8.018;2023-09-08T07:53:04;9.93;;;7.10;;
6987;SDS011;3534;49.960;8.018;2023-09-08T07:55:30;13.93;;;7.33;;
6987;SDS011;3534;49.960;8.018;2023-09-08T07:57:57;10.33;;;7.30;;
6987;SDS011;3534;49.960;8.018;2023-09-08T08:00:25;23.37;;;7.60;;
6987;SDS011;3534;49.960;8.018;2023-09-08T08:02:53;10.97;;;6.73;;
6987;SDS011;3534;49.960;8.018;2023-09-08T08:05:21;9.60;;;6.60;;
6987;SDS011;3534;49.960;8.018;2023-09-08T08:07:47;13.10;;;7.30;;
6987;SDS011;3534;49.960;8.018;2023-09-08T08:10:14;12.07;;;7.77;;
6987;SDS011;3534;49.960;8.018;2023-09-08T08:12:42;12.03;;;6.63;;
6987;SDS011;3534;49.960;8.018;2023-09-08T08:15:09;15.63;;;6.57;;
6987;SDS011;3534;49.960;8.018;2023-09-08T08:17:37;10.50;;;7.20;;
6987;SDS011;3534;49.960;8.018;2023-09-08T08:20:05;9.53;;;6.33;;
6987;SDS011;3534;49.960;8.018;2023-09-08T08:22:34;9.27;;;6.40;;
6987;SDS011;3534;49.960;8.018;2023-09-08T08:25:02;9.40;;;6.23;;
6987;SDS011;3534;49.960;8.018;2023-09-08T08:27:29;12.67;;;6.50;;
6987;SDS011;3534;49.960;8.018;2023-09-08T08:29:56;10.80;;;6.60;;
6987;SDS011;3534;49.960;8.018;2023-09-08T08:32:24;6.70;;;5.87;;
6987;SDS011;3534;49.960;8.018;2023-09-08T08:34:52;10.13;;;6.87;;
6987;SDS011;3534;49.960;8.018;2023-09-08T08:37:19;10.77;;;6.27;;
6987;SDS011;3534;49.960;8.018;2023-09-08T08:39:46;8.17;;;5.87;;
6987;SDS011;3534;49.960;8.018;2023-09-08T08:42:12;9.10;;;6.50;;
6987;SDS011;3534;49.960;8.018;2023-09-08T08:44:39;12.63;;;6.53;;
6987;SDS011;3534;49.960;8.018;2023-09-08T08:47:07;9.43;;;7.00;;
6987;SDS011;3534;49.960;8.018;2023-09-08T08:49:35;10.40;;;6.07;;
6987;SDS011;3534;49.960;8.018;2023-09-08T08:52:05;11.90;;;5.60;;
6987;SDS011;3534;49.960;8.018;2023-09-08T08:54:34;13.93;;;6.23;;
6987;SDS011;3534;49.960;8.018;2023-09-08T08:57:03;8.13;;;6.07;;
6987;SDS011;3534;49.960;8.018;2023-09-08T08:59:30;10.13;;;6.60;;
6987;SDS011;3534;49.960;8.018;2023-09-08T09:01:57;12.30;;;6.27;;
6987;SDS011;3534;49.960;8.018;2023-09-08T09:04:24;13.63;;;6.13;;
6987;SDS011;3534;49.960;8.018;2023-09-08T09:06:52;11.47;;;6.17;;
6987;SDS011;3534;49.960;8.018;2023-09-08T09:09:21;7.87;;;5.80;;
6987;SDS011;3534;49.960;8.018;2023-09-08T09:11:48;8.03;;;5.57;;
6987;SDS011;3534;49.960;8.018;2023-09-08T09:14:15;10.30;;;6.17;;
6987;SDS011;3534;49.960;8.018;2023-09-08T09:16:44;7.33;;;5.63;;
6987;SDS011;3534;49.960;8.018;2023-09-08T09:19:17;7.10;;;5.53;;
6987;SDS011;3534;49.960;8.018;2023-09-08T09:21:45;8.10;;;6.17;;
6987;SDS011;3534;49.960;8.018;2023-09-08T09:24:13;11.23;;;5.60;;
6987;SDS011;3534;49.960;8.018;2023-09-08T09:26:42;9.10;;;5.40;;
6987;SDS011;3534;49.960;8.018;2023-09-08T09:29:11;7.87;;;4.87;;
6987;SDS011;3534;49.960;8.018;2023-09-08T09:31:42;7.80;;;5.37;;
6987;SDS011;3534;49.960;8.018;2023-09-08T09:34:17;8.03;;;5.20;;
6987;SDS011;3534;49.960;8.018;2023-09-08T09:36:45;7.67;;;5.77;;
6987;SDS011;3534;49.960;8.018;2023-09-08T09:39:15;9.77;;;5.23;;
6987;SDS011;3534;49.960;8.018;2023-09-08T09:41:44;10.43;;;5.40;;
6987;SDS011;3534;49.960;8.018;2023-09-08T09:44:11;6.80;;;5.43;;
6987;SDS011;3534;49.960;8.018;2023-09-08T09:46:37;7.23;;;5.80;;
6987;SDS011;3534;49.960;8.018;2023-09-08T09:49:05;5.70;;;5.20;;
6987;SDS011;3534;49.960;8.018;2023-09-08T09:51:31;7.50;;;5.50;;
6987;SDS011;3534;49.960;8.018;2023-09-08T09:53:59;5.53;;;4.93;;
6987;SDS011;3534;49.960;8.018;2023-09-08T09:56:30;8.10;;;5.57;;
6987;SDS011;3534;49.960;8.018;2023-09-08T09:58:58;6.93;;;4.50;;
6987;SDS011;3534;49.960;8.018;2023-09-08T10:01:28;14.90;;;5.13;;
6987;SDS011;3534;49.960;8.018;2023-09-08T10:03:55;7.00;;;5.30;;
6987;SDS011;3534;49.960;8.018;2023-09-08T10:06:22;9.53;;;5.20;;
6987;SDS011;3534;49.960;8.018;2023-09-08T10:08:49;7.10;;;5.30;;
6987;SDS011;3534;49.960;8.018;2023-09-08T10:11:18;10.40;;;4.90;;
6987;SDS011;3534;49.960;8.018;2023-09-08T10:13:47;5.53;;;4.80;;
6987;SDS011;3534;49.960;8.018;2023-09-08T10:16:19;7.60;;;4.33;;
6987;SDS011;3534;49.960;8.018;2023-09-08T10:18:47;5.30;;;4.80;;
6987;SDS011;3534;49.960;8.018;2023-09-08T10:21:15;9.47;;;4.67;;
6987;SDS011;3534;49.960;8.018;2023-09-08T10:23:44;6.43;;;4.77;;
6987;SDS011;3534;49.960;8.018;2023-09-08T10:26:18;6.50;;;4.93;;
6987;SDS011;3534;49.960;8.018;2023-09-08T10:28:49;9.50;;;5.00;;
6987;SDS011;3534;49.960;8.018;2023-09-08T10:31:22;6.20;;;4.97;;
6987;SDS011;3534;49.960;8.018;2023-09-08T10:33:51;7.83;;;4.83;;
6987;SDS011;3534;49.960;8.018;2023-09-08T10:36:18;6.40;;;5.03;;
6987;SDS011;3534;49.960;8.018;2023-09-08T10:38:45;8.30;;;5.87;;
6987;SDS011;3534;49.960;8.018;2023-09-08T10:41:26;5.93;;;5.33;;
6987;SDS011;3534;49.960;8.018;2023-09-08T10:43:57;11.67;;;6.03;;
6987;SDS011;3534;49.960;8.018;2023-09-08T10:46:28;9.50;;;5.30;;
6987;SDS011;3534;49.960;8.018;2023-09-08T10:49:00;7.30;;;4.50;;
6987;SDS011;3534;49.960;8.018;2023-09-08T10:51:29;6.40;;;4.90;;
6987;SDS011;3534;49.960;8.018;2023-09-08T10:53:55;6.07;;;4.93;;
6987;SDS011;3534;49.960;8.018;2023-09-08T10:56:26;8.30;;;5.70;;
6987;SDS011;3534;49.960;8.018;2023-09-08T10:58:54;9.90;;;5.10;;
6987;SDS011;3534;49.960;8.018;2023-09-08T11:01:21;9.70;;;5.03;;
6987;SDS011;3534;49.960;8.018;2023-09-08T11:03:53;7.20;;;5.50;;
6987;SDS011;3534;49.960;8.018;2023-09-08T11:06:19;6.13;;;4.97;;
6987;SDS011;3534;49.960;8.018;2023-09-08T11:08:48;8.77;;;4.97;;
6987;SDS011;3534;49.960;8.018;2023-09-08T11:11:18;8.60;;;5.60;;
6987;SDS011;3534;49.960;8.018;2023-09-08T11:13:45;7.73;;;5.10;;
6987;SDS011;3534;49.960;8.018;2023-09-08T11:16:12;11.17;;;5.70;;
6987;SDS011;3534;49.960;8.018;2023-09-08T11:18:40;5.13;;;4.60;;
6987;SDS011;3534;49.960;8.018;2023-09-08T11:21:09;11.60;;;5.13;;
6987;SDS011;3534;49.960;8.018;2023-09-08T11:23:36;9.00;;;5.33;;
6987;SDS011;3534;49.960;8.018;2023-09-08T11:26:03;5.57;;;4.53;;
6987;SDS011;3534;49.960;8.018;2023-09-08T11:28:31;6.93;;;5.17;;
6987;SDS011;3534;49.960;8.018;2023-09-08T11:30:58;9.23;;;4.37;;
6987;SDS011;3534;49.960;8.018;2023-09-08T11:33:25;7.40;;;4.90;;
6987;SDS011;3534;49.960;8.018;2023-09-08T11:35:52;4.60;;;4.00;;
6987;SDS011;3534;49.960;8.018;2023-09-08T11:38:22;5.47;;;4.93;;
6987;SDS011;3534;49.960;8.018;2023-09-08T11:40:51;5.80;;;4.37;;
6987;SDS011;3534;49.960;8.018;2023-09-08T11:43:18;5.40;;;4.33;;
6987;SDS011;3534;49.960;8.018;2023-09-08T11:45:45;6.20;;;4.27;;
6987;SDS011;3534;49.960;8.018;2023-09-08T11:48:13;10.50;;;5.40;;
6987;SDS011;3534;49.960;8.018;2023-09-08T11:50:40;6.10;;;3.60;;
6987;SDS011;3534;49.960;8.018;2023-09-08T11:53:07;6.77;;;4.47;;
6987;SDS011;3534;49.960;8.018;2023-09-08T11:55:35;5.17;;;4.40;;
6987;SDS011;3534;49.960;8.018;2023-09-08T11:58:02;5.40;;;3.97;;
6987;SDS011;3534;49.960;8.018;2023-09-08T12:00:30;5.77;;;4.30;;
6987;SDS011;3534;49.960;8.018;2023-09-08T12:03:08;5.90;;;3.87;;
6987;SDS011;3534;49.960;8.018;2023-09-08T12:05:36;9.33;;;5.00;;
6987;SDS011;3534;49.960;8.018;2023-09-08T12:08:03;4.63;;;4.17;;
6987;SDS011;3534;49.960;8.018;2023-09-08T12:10:38;4.57;;;4.17;;
6987;SDS011;3534;49.960;8.018;2023-09-08T12:13:06;4.40;;;3.63;;
6987;SDS011;3534;49.960;8.018;2023-09-08T12:15:34;4.95;;;4.20;;
6987;SDS011;3534;49.960;8.018;2023-09-08T12:18:02;7.75;;;4.80;;
6987;SDS011;3534;49.960;8.018;2023-09-08T12:20:30;7.10;;;5.07;;
6987;SDS011;3534;49.960;8.018;2023-09-08T12:22:58;5.15;;;4.50;;
6987;SDS011;3534;49.960;8.018;2023-09-08T12:25:27;4.35;;;3.63;;
6987;SDS011;3534;49.960;8.018;2023-09-08T12:27:57;6.15;;;4.38;;
6987;SDS011;3534;49.960;8.018;2023-09-08T12:30:25;5.18;;;3.95;;
6987;SDS011;3534;49.960;8.018;2023-09-08T12:32:55;7.75;;;3.60;;
6987;SDS011;3534;49.960;8.018;2023-09-08T12:35:22;6.53;;;3.90;;
6987;SDS011;3534;49.960;8.018;2023-09-08T12:37:52;5.30;;;3.58;;
6987;SDS011;3534;49.960;8.018;2023-09-08T12:40:22;4.30;;;3.90;;
6987;SDS011;3534;49.960;8.018;2023-09-08T12:42:49;4.60;;;4.13;;
6987;SDS011;3534;49.960;8.018;2023-09-08T12:45:17;3.83;;;3.53;;
6987;SDS011;3534;49.960;8.018;2023-09-08T12:47:44;4.07;;;3.67;;
6987;SDS011;3534;49.960;8.018;2023-09-08T12:50:11;3.40;;;3.10;;
6987;SDS011;3534;49.960;8.018;2023-09-08T12:52:38;4.13;;;3.72;;
6987;SDS011;3534;49.960;8.018;2023-09-08T12:55:05;3.88;;;3.58;;
6987;SDS011;3534;49.960;8.018;2023-09-08T12:57:32;5.05;;;3.67;;
6987;SDS011;3534;49.960;8.018;2023-09-08T12:59:59;7.18;;;3.90;;
6987;SDS011;3534;49.960;8.018;2023-09-08T13:02:27;5.85;;;4.03;;
6987;SDS011;3534;49.960;8.018;2023-09-08T13:04:54;4.45;;;4.03;;
6987;SDS011;3534;49.960;8.018;2023-09-08T13:07:21;5.05;;;3.80;;
6987;SDS011;3534;49.960;8.018;2023-09-08T13:09:48;3.80;;;3.50;;
6987;SDS011;3534;49.960;8.018;2023-09-08T13:12:15;4.93;;;4.43;;
6987;SDS011;3534;49.960;8.018;2023-09-08T13:14:42;7.30;;;4.20;;
6987;SDS011;3534;49.960;8.018;2023-09-08T13:17:09;5.65;;;3.53;;
6987;SDS011;3534;49.960;8.018;2023-09-08T13:19:38;9.57;;;3.25;;
6987;SDS011;3534;49.960;8.018;2023-09-08T13:22:04;6.38;;;3.25;;
6987;SDS011;3534;49.960;8.018;2023-09-08T13:24:31;5.00;;;3.33;;
6987;SDS011;3534;49.960;8.018;2023-09-08T13:26:59;4.47;;;3.53;;
6987;SDS011;3534;49.960;8.018;2023-09-08T13:29:25;6.63;;;3.83;;
6987;SDS011;3534;49.960;8.018;2023-09-08T13:31:52;4.43;;;4.03;;
6987;SDS011;3534;49.960;8.018;2023-09-08T13:34:19;5.72;;;3.40;;
6987;SDS011;3534;49.960;8.018;2023-09-08T13:36:47;3.75;;;3.35;;
6987;SDS011;3534;49.960;8.018;2023-09-08T13:39:14;4.13;;;3.20;;
6987;SDS011;3534;49.960;8.018;2023-09-08T13:41:45;5.30;;;3.38;;
6987;SDS011;3534;49.960;8.018;2023-09-08T13:44:12;5.45;;;3.22;;
6987;SDS011;3534;49.960;8.018;2023-09-08T13:46:39;5.13;;;3.47;;
6987;SDS011;3534;49.960;8.018;2023-09-08T13:49:05;7.65;;;3.83;;
6987;SDS011;3534;49.960;8.018;2023-09-08T13:51:32;4.97;;;3.55;;
6987;SDS011;3534;49.960;8.018;2023-09-08T13:54:01;3.60;;;3.17;;
6987;SDS011;3534;49.960;8.018;2023-09-08T13:56:27;3.80;;;3.40;;
6987;SDS011;3534;49.960;8.018;2023-09-08T13:58:54;5.93;;;3.58;;
6987;SDS011;3534;49.960;8.018;2023-09-08T14:01:21;3.85;;;3.55;;
6987;SDS011;3534;49.960;8.018;2023-09-08T14:03:49;4.47;;;3.00;;
6987;SDS011;3534;49.960;8.018;2023-09-08T14:06:17;4.38;;;3.97;;
6987;SDS011;3534;49.960;8.018;2023-09-08T14:08:43;8.57;;;4.00;;
6987;SDS011;3534;49.960;8.018;2023-09-08T14:11:11;5.18;;;3.40;;
6987;SDS011;3534;49.960;8.018;2023-09-08T14:13:38;5.97;;;3.42;;
6987;SDS011;3534;49.960;8.018;2023-09-08T14:16:05;3.30;;;2.72;;
6987;SDS011;3534;49.960;8.018;2023-09-08T14:18:33;6.90;;;4.00;;
6987;SDS011;3534;49.960;8.018;2023-09-08T14:21:00;5.97;;;3.25;;
6987;SDS011;3534;49.960;8.018;2023-09-08T14:23:27;5.90;;;5.30;;
6987;SDS011;3534;49.960;8.018;2023-09-08T14:25:54;3.53;;;3.20;;
6987;SDS011;3534;49.960;8.018;2023-09-08T14:28:22;6.85;;;3.40;;
6987;SDS011;3534;49.960;8.018;2023-09-08T14:30:50;6.03;;;4.00;;
6987;SDS011;3534;49.960;8.018;2023-09-08T14:33:18;3.47;;;3.17;;
6987;SDS011;3534;49.960;8.018;2023-09-08T14:35:44;3.50;;;3.20;;
6987;SDS011;3534;49.960;8.018;2023-09-08T14:38:16;7.63;;;3.35;;
6987;SDS011;3534;49.960;8.018;2023-09-08T14:40:43;4.47;;;3.20;;
6987;SDS011;3534;49.960;8.018;2023-09-08T14:43:10;6.07;;;3.63;;
6987;SDS011;3534;49.960;8.018;2023-09-08T14:45:39;4.57;;;2.97;;
6987;SDS011;3534;49.960;8.018;2023-09-08T14:48:05;4.95;;;3.60;;
6987;SDS011;3534;49.960;8.018;2023-09-08T14:50:33;3.65;;;3.35;;
6987;SDS011;3534;49.960;8.018;2023-09-08T14:53:00;5.07;;;3.60;;
6987;SDS011;3534;49.960;8.018;2023-09-08T14:55:27;4.07;;;3.17;;
6987;SDS011;3534;49.960;8.018;2023-09-08T14:57:54;5.22;;;3.83;;
6987;SDS011;3534;49.960;8.018;2023-09-08T15:00:21;5.05;;;3.47;;
6987;SDS011;3534;49.960;8.018;2023-09-08T15:02:49;3.75;;;3.45;;
6987;SDS011;3534;49.960;8.018;2023-09-08T15:05:15;7.80;;;4.05;;
6987;SDS011;3534;49.960;8.018;2023-09-08T15:07:42;10.05;;;3.35;;
6987;SDS011;3534;49.960;8.018;2023-09-08T15:10:09;5.57;;;3.60;;
6987;SDS011;3534;49.960;8.018;2023-09-08T15:12:36;3.42;;;3.13;;
6987;SDS011;3534;49.960;8.018;2023-09-08T15:15:03;5.68;;;3.33;;
6987;SDS011;3534;49.960;8.018;2023-09-08T15:17:30;4.32;;;3.25;;